createdAt,value
2023-05-12T00:01:15.330Z,101710.13
2023-05-12T00:06:18.952Z,101713.28
2023-05-12T00:11:23.592Z,101710.97
2023-05-12T00:16:26.790Z,101709.84
2023-05-12T00:21:29.880Z,101702.69
2023-05-12T00:26:34.257Z,101699.78
2023-05-12T00:31:37.404Z,101703.25
2023-05-12T00:36:41.342Z,101694.38
2023-05-12T00:41:47.908Z,101693.34
2023-05-12T00:46:51.859Z,101700.25
2023-05-12T00:51:55.717Z,101688.72
2023-05-12T00:57:01.938Z,101691.22
2023-05-12T01:02:07.271Z,101687.56
2023-05-12T01:07:16.849Z,101688.56
2023-05-12T01:12:21.771Z,101673.41
2023-05-12T01:17:30.757Z,101654.66
2023-05-12T01:22:35.291Z,101661.47
2023-05-12T01:27:41.645Z,101657.13
2023-05-12T01:32:45.856Z,101668.06
2023-05-12T01:37:50.619Z,101667.28
2023-05-12T01:42:56.300Z,101657.84
2023-05-12T01:48:00.499Z,101664.97
2023-05-12T01:53:03.995Z,101666.66
2023-05-12T01:58:09.595Z,101655.22
2023-05-12T02:03:13.130Z,101662.34
2023-05-12T02:08:16.427Z,101663.97
2023-05-12T02:13:21.395Z,101667.28
2023-05-12T02:18:24.586Z,101661.06
2023-05-12T02:23:28.401Z,101653.16
2023-05-12T02:28:33.468Z,101650.44
2023-05-12T02:33:36.843Z,101640.69
2023-05-12T02:38:40.460Z,101623.59
2023-05-12T02:43:45.534Z,101642.09
2023-05-12T02:48:48.622Z,101630.78
2023-05-12T02:53:52.095Z,101626.38
2023-05-12T02:58:56.542Z,101631.00
2023-05-12T03:03:59.753Z,101625.25
2023-05-12T03:09:02.878Z,101618.84
2023-05-12T03:14:07.619Z,101621.25
2023-05-12T03:19:10.996Z,101617.59
2023-05-12T03:24:14.169Z,101612.88
2023-05-12T03:29:19.669Z,101611.88
2023-05-12T03:34:22.969Z,101594.91
2023-05-12T03:39:26.554Z,101604.81
2023-05-12T03:44:31.659Z,101587.91
2023-05-12T03:49:34.655Z,101595.22
2023-05-12T03:54:38.068Z,101599.53
2023-05-12T03:59:42.527Z,101601.41
2023-05-12T04:04:45.517Z,101588.28
2023-05-12T04:09:48.489Z,101589.34
2023-05-12T04:14:52.952Z,101590.28
2023-05-12T04:19:56.016Z,101595.66
2023-05-12T04:24:59.330Z,101591.97
2023-05-12T04:30:04.191Z,101601.59
2023-05-12T04:35:11.652Z,101599.03
2023-05-12T04:40:15.293Z,101590.25
2023-05-12T04:45:20.385Z,101604.44
2023-05-12T04:50:23.803Z,101614.97
2023-05-12T04:55:27.018Z,101607.13
2023-05-12T05:00:31.624Z,101618.75
2023-05-12T05:05:34.676Z,101624.88
2023-05-12T05:10:38.395Z,101619.59
2023-05-12T05:15:50.932Z,101620.56
2023-05-12T05:20:58.549Z,101641.31
2023-05-12T05:26:02.532Z,101649.44
2023-05-12T05:31:07.669Z,101643.53
2023-05-12T05:36:11.575Z,101637.50
2023-05-12T05:41:14.808Z,101635.34
2023-05-12T05:46:19.411Z,101638.69
2023-05-12T05:51:22.485Z,101653.09
2023-05-12T05:56:25.604Z,101646.25
2023-05-12T06:01:31.217Z,101658.00
2023-05-12T06:06:34.705Z,101658.75
2023-05-12T06:11:38.120Z,101654.19
2023-05-12T06:16:42.742Z,101677.13
2023-05-12T06:21:45.642Z,101677.78
2023-05-12T06:26:49.115Z,101677.44
2023-05-12T06:31:53.876Z,101689.13
2023-05-12T06:36:57.118Z,101689.75
2023-05-12T06:42:00.778Z,101691.88
2023-05-12T06:47:14.208Z,101689.53
2023-05-12T06:52:17.521Z,101689.25
2023-05-12T06:57:20.737Z,101691.03
2023-05-12T07:02:25.090Z,101696.03
2023-05-12T07:07:28.180Z,101701.69
2023-05-12T07:12:32.231Z,101708.72
2023-05-12T07:17:36.759Z,101717.66
2023-05-12T07:22:39.867Z,101714.69
2023-05-12T07:27:42.969Z,101725.03
2023-05-12T07:32:47.466Z,101727.09
2023-05-12T07:37:51.068Z,101719.41
2023-05-12T07:42:54.149Z,101720.16
2023-05-12T07:47:58.601Z,101719.16
2023-05-12T07:53:01.853Z,101727.78
2023-05-12T07:58:05.027Z,101730.72
2023-05-12T08:03:09.494Z,101721.97
2023-05-12T08:08:16.785Z,101725.91
2023-05-12T08:13:19.880Z,101727.78
2023-05-12T08:18:24.362Z,101737.09
2023-05-12T08:23:27.477Z,101730.56
2023-05-12T08:28:31.178Z,101735.66
2023-05-12T08:33:37.028Z,101746.16
2023-05-12T08:38:40.471Z,101744.66
2023-05-12T08:43:45.889Z,101735.03
2023-05-12T08:48:53.397Z,101741.31
2023-05-12T08:53:58.091Z,101731.53
2023-05-12T08:59:02.430Z,101753.03
2023-05-12T09:04:07.500Z,101706.72
2023-05-12T09:09:11.014Z,101717.47
2023-05-12T09:14:19.157Z,101757.97
2023-05-12T09:19:24.102Z,101761.94
2023-05-12T09:24:36.656Z,101727.97
2023-05-12T09:29:59.252Z,101727.19
2023-05-12T09:35:11.122Z,101767.38
2023-05-12T09:40:14.869Z,101742.47
2023-05-12T09:45:18.201Z,101738.13
2023-05-12T09:50:23.812Z,101740.81
2023-05-12T09:55:27.225Z,101763.13
2023-05-12T10:00:41.316Z,101776.59
2023-05-12T10:05:54.558Z,101752.53
2023-05-12T10:11:03.584Z,101740.94
2023-05-12T10:16:11.459Z,101778.47
2023-05-12T10:21:19.638Z,101743.63
2023-05-12T10:26:23.585Z,101769.16
2023-05-12T10:31:29.239Z,101733.22
2023-05-12T10:36:45.073Z,101772.59
2023-05-12T10:41:48.197Z,101760.38
2023-05-12T10:46:58.695Z,101756.66
2023-05-12T10:52:03.225Z,101780.66
2023-05-12T10:57:17.876Z,101773.59
2023-05-12T11:02:29.162Z,101775.31
2023-05-12T11:07:36.701Z,101772.53
2023-05-12T11:12:40.635Z,101727.88
2023-05-12T11:17:43.743Z,101757.22
2023-05-12T11:22:48.571Z,101748.91
2023-05-12T11:27:51.897Z,101789.91
2023-05-12T11:33:04.440Z,101795.38
2023-05-12T11:38:18.752Z,101760.88
2023-05-12T11:43:22.729Z,101791.34
2023-05-12T11:48:34.783Z,101801.19
2023-05-12T11:53:42.818Z,101791.19
2023-05-12T11:58:54.902Z,101760.25
2023-05-12T12:03:58.194Z,101779.06
2023-05-12T12:09:02.864Z,101820.34
2023-05-12T12:14:06.193Z,101780.06
2023-05-12T12:19:09.292Z,101811.97
2023-05-12T12:24:14.236Z,101802.25
2023-05-12T12:29:17.800Z,101837.31
2023-05-12T12:34:20.887Z,101815.94
2023-05-12T12:39:25.736Z,101792.72
2023-05-12T12:44:29.158Z,101832.81
2023-05-12T12:49:32.425Z,101806.81
2023-05-12T12:54:37.520Z,101809.34
2023-05-12T12:59:40.773Z,101829.75
2023-05-12T13:04:43.896Z,101816.28
2023-05-12T13:09:48.552Z,101833.81
2023-05-12T13:14:51.557Z,101831.19
2023-05-12T13:19:54.694Z,101840.19
2023-05-12T13:24:59.392Z,101801.34
2023-05-12T13:30:04.446Z,101804.97
2023-05-12T13:35:09.011Z,101803.88
2023-05-12T13:40:14.570Z,101828.97
2023-05-12T13:45:19.420Z,101808.53
2023-05-12T13:50:23.059Z,101819.38
2023-05-12T13:55:27.654Z,101805.31
2023-05-12T14:00:31.256Z,101796.19
2023-05-12T14:05:34.850Z,101804.84
2023-05-12T14:10:40.307Z,101810.28
2023-05-12T14:15:49.304Z,101806.09
2023-05-12T14:20:53.399Z,101829.81
2023-05-12T14:25:58.169Z,101804.28
2023-05-12T14:31:02.802Z,101809.03
2023-05-12T14:36:08.430Z,101798.38
2023-05-12T14:41:13.730Z,101839.81
2023-05-12T14:46:16.954Z,101810.53
2023-05-12T14:51:19.997Z,101843.53
2023-05-12T14:56:25.334Z,101834.97
2023-05-12T15:01:29.565Z,101848.50
2023-05-12T15:06:34.069Z,101853.59
2023-05-12T15:11:38.372Z,101844.13
2023-05-12T15:16:41.776Z,101843.78
2023-05-12T15:21:45.030Z,101856.91
2023-05-12T15:26:49.872Z,101850.72
2023-05-12T15:31:53.079Z,101845.13
2023-05-12T15:36:56.287Z,101844.13
2023-05-12T15:42:01.237Z,101838.81
2023-05-12T15:47:05.200Z,101810.38
2023-05-12T15:52:11.521Z,101829.78
2023-05-12T15:57:16.936Z,101831.44
2023-05-12T16:02:20.182Z,101833.94
2023-05-12T16:07:23.585Z,101839.13
2023-05-12T16:12:33.478Z,101826.84
2023-05-12T16:17:37.967Z,101817.56
2023-05-12T16:22:41.799Z,101833.22
2023-05-12T16:27:46.352Z,101837.16
2023-05-12T16:32:49.742Z,101831.22
2023-05-12T16:37:53.812Z,101827.25
2023-05-12T16:42:58.287Z,101799.03
2023-05-12T16:48:02.741Z,101802.78
2023-05-12T16:53:06.342Z,101853.09
2023-05-12T16:58:11.155Z,101874.84
2023-05-12T17:03:14.301Z,101884.53
2023-05-12T17:08:19.002Z,101903.09
2023-05-12T17:13:23.774Z,101896.88
2023-05-12T17:18:27.144Z,101893.28
2023-05-12T17:23:30.398Z,101907.44
2023-05-12T17:28:35.219Z,101934.91
2023-05-12T17:33:38.393Z,101924.78
2023-05-12T17:38:42.105Z,101959.22
2023-05-12T17:43:46.608Z,101962.78
2023-05-12T17:48:49.804Z,101965.53
2023-05-12T17:53:52.912Z,101962.59
2023-05-12T17:58:57.436Z,101972.41
2023-05-12T18:04:00.740Z,101966.25
2023-05-12T18:09:03.911Z,101976.06
2023-05-12T18:14:08.687Z,101985.69
2023-05-12T18:19:11.859Z,101986.22
2023-05-12T18:24:15.287Z,101983.06
2023-05-12T18:29:19.687Z,101974.91
2023-05-12T18:34:22.720Z,101973.63
2023-05-12T18:39:26.154Z,101981.28
2023-05-12T18:44:30.566Z,101982.41
2023-05-12T18:49:33.631Z,101985.13
2023-05-12T18:54:37.052Z,102003.81
2023-05-12T18:59:41.918Z,101997.38
2023-05-12T19:04:45.166Z,102005.91
2023-05-12T19:09:48.431Z,101993.09
2023-05-12T19:14:53.262Z,101992.81
2023-05-12T19:19:57.684Z,102017.56
2023-05-12T19:25:00.911Z,102023.59
2023-05-12T19:30:06.754Z,102022.34
2023-05-12T19:35:11.778Z,102026.50
2023-05-12T19:40:15.011Z,102041.25
2023-05-12T19:45:19.539Z,102050.69
2023-05-12T19:50:22.876Z,102044.09
2023-05-12T19:55:26.253Z,102056.94
2023-05-12T20:00:30.675Z,102056.53
2023-05-12T20:05:36.634Z,102059.69
2023-05-12T20:10:41.011Z,102060.22
2023-05-12T20:15:45.940Z,102050.97
2023-05-12T20:20:49.101Z,102067.50
2023-05-12T20:25:53.333Z,102068.13
2023-05-12T20:30:57.837Z,102059.84
2023-05-12T20:36:01.002Z,102068.41
2023-05-12T20:41:07.464Z,102071.50
2023-05-12T20:46:12.540Z,102072.81
2023-05-12T20:51:15.832Z,102072.53
2023-05-12T20:56:18.953Z,102077.50
2023-05-12T21:01:23.437Z,102083.34
2023-05-12T21:06:26.766Z,102087.44
2023-05-12T21:11:29.747Z,102082.78
2023-05-12T21:16:34.265Z,102086.53
2023-05-12T21:21:37.410Z,102091.09
2023-05-12T21:26:40.520Z,102105.38
2023-05-12T21:31:45.189Z,102098.16
2023-05-12T21:36:48.775Z,102098.03
2023-05-12T21:41:51.904Z,102106.09
2023-05-12T21:46:58.610Z,102101.41
2023-05-12T21:52:01.730Z,102100.25
2023-05-12T21:57:04.988Z,102120.56
2023-05-12T22:02:09.549Z,102113.19
2023-05-12T22:07:12.977Z,102123.78
2023-05-12T22:12:18.482Z,102127.03
2023-05-12T22:17:22.843Z,102129.47
2023-05-12T22:22:25.841Z,102127.44
2023-05-12T22:27:28.833Z,102121.78
2023-05-12T22:32:33.518Z,102124.97
2023-05-12T22:37:36.751Z,102134.78
2023-05-12T22:42:40.289Z,102141.66
2023-05-12T22:47:44.748Z,102132.56
2023-05-12T22:52:48.008Z,102138.53
2023-05-12T22:57:51.325Z,102142.88
2023-05-12T23:02:55.822Z,102140.09
2023-05-12T23:07:58.826Z,102134.84
2023-05-12T23:13:02.058Z,102134.94
2023-05-12T23:18:06.440Z,102136.66
2023-05-12T23:23:09.586Z,102130.41
2023-05-12T23:28:12.553Z,102130.31
2023-05-12T23:33:17.183Z,102130.31
2023-05-12T23:38:20.232Z,102126.75
2023-05-12T23:43:23.254Z,102118.69
2023-05-12T23:48:28.561Z,102127.66
2023-05-12T23:53:31.677Z,102128.38
2023-05-12T23:58:35.563Z,102120.22
